sensor_id;sensor_type;location;lat;lon;timestamp;temperature;humidity
21646;DHT22;10984;45.712;4.800;2022-10-31T00:04:04;13.50;99.90
21646;DHT22;10984;45.712;4.800;2022-10-31T00:06:29;13.50;99.90
21646;DHT22;10984;45.712;4.800;2022-10-31T00:11:41;13.50;99.90
21646;DHT22;10984;45.712;4.800;2022-10-31T00:14:06;13.50;99.90
21646;DHT22;10984;45.712;4.800;2022-10-31T00:16:32;13.50;99.90
21646;DHT22;10984;45.712;4.800;2022-10-31T00:19:00;13.50;99.90
21646;DHT22;10984;45.712;4.800;2022-10-31T00:21:27;13.50;99.90
21646;DHT22;10984;45.712;4.800;2022-10-31T00:23:52;13.50;99.90
21646;DHT22;10984;45.712;4.800;2022-10-31T00:26:19;13.50;99.90
21646;DHT22;10984;45.712;4.800;2022-10-31T00:28:44;13.50;99.90
21646;DHT22;10984;45.712;4.800;2022-10-31T00:31:11;13.50;99.90
21646;DHT22;10984;45.712;4.800;2022-10-31T00:33:38;13.40;99.90
21646;DHT22;10984;45.712;4.800;2022-10-31T00:36:05;13.50;99.90
21646;DHT22;10984;45.712;4.800;2022-10-31T00:38:31;13.40;99.90
21646;DHT22;10984;45.712;4.800;2022-10-31T00:40:57;13.40;99.90
21646;DHT22;10984;45.712;4.800;2022-10-31T00:43:23;13.40;99.90
21646;DHT22;10984;45.712;4.800;2022-10-31T00:45:49;13.40;99.90
21646;DHT22;10984;45.712;4.800;2022-10-31T00:48:15;13.30;99.90
21646;DHT22;10984;45.712;4.800;2022-10-31T00:50:42;13.30;99.90
21646;DHT22;10984;45.712;4.800;2022-10-31T00:53:07;13.30;99.90
21646;DHT22;10984;45.712;4.800;2022-10-31T00:55:33;13.20;99.90
21646;DHT22;10984;45.712;4.800;2022-10-31T00:57:59;13.20;99.90
21646;DHT22;10984;45.712;4.800;2022-10-31T01:00:25;13.20;99.90
21646;DHT22;10984;45.712;4.800;2022-10-31T01:02:50;13.10;99.90
21646;DHT22;10984;45.712;4.800;2022-10-31T01:05:16;13.10;99.90
21646;DHT22;10984;45.712;4.800;2022-10-31T01:07:42;13.10;99.90
21646;DHT22;10984;45.712;4.800;2022-10-31T01:10:09;13.10;99.90
21646;DHT22;10984;45.712;4.800;2022-10-31T01:12:53;13.10;99.90
21646;DHT22;10984;45.712;4.800;2022-10-31T01:15:21;13.10;99.90
21646;DHT22;10984;45.712;4.800;2022-10-31T01:17:48;13.10;99.90
21646;DHT22;10984;45.712;4.800;2022-10-31T01:20:15;13.10;99.90
21646;DHT22;10984;45.712;4.800;2022-10-31T01:22:41;13.00;99.90
21646;DHT22;10984;45.712;4.800;2022-10-31T01:25:08;13.00;99.90
21646;DHT22;10984;45.712;4.800;2022-10-31T01:27:34;13.00;99.90
21646;DHT22;10984;45.712;4.800;2022-10-31T01:30:00;13.00;99.90
21646;DHT22;10984;45.712;4.800;2022-10-31T01:32:27;13.00;99.90
21646;DHT22;10984;45.712;4.800;2022-10-31T01:34:54;12.90;99.90
21646;DHT22;10984;45.712;4.800;2022-10-31T01:37:20;13.00;99.90
21646;DHT22;10984;45.712;4.800;2022-10-31T01:39:47;12.90;99.90
21646;DHT22;10984;45.712;4.800;2022-10-31T01:42:18;12.90;99.90
21646;DHT22;10984;45.712;4.800;2022-10-31T01:50:40;12.80;99.90
21646;DHT22;10984;45.712;4.800;2022-10-31T01:53:07;12.80;99.90
21646;DHT22;10984;45.712;4.800;2022-10-31T01:55:36;12.80;99.90
21646;DHT22;10984;45.712;4.800;2022-10-31T01:58:23;12.70;99.90
21646;DHT22;10984;45.712;4.800;2022-10-31T02:00:53;12.70;99.90
21646;DHT22;10984;45.712;4.800;2022-10-31T02:03:22;12.70;99.90
21646;DHT22;10984;45.712;4.800;2022-10-31T02:05:50;12.70;99.90
21646;DHT22;10984;45.712;4.800;2022-10-31T02:08:21;12.70;99.90
21646;DHT22;10984;45.712;4.800;2022-10-31T02:10:48;12.60;99.90
21646;DHT22;10984;45.712;4.800;2022-10-31T02:13:15;12.70;99.90
21646;DHT22;10984;45.712;4.800;2022-10-31T02:15:42;12.60;99.90
21646;DHT22;10984;45.712;4.800;2022-10-31T02:18:09;12.60;99.90
21646;DHT22;10984;45.712;4.800;2022-10-31T02:40:35;12.40;99.90
21646;DHT22;10984;45.712;4.800;2022-10-31T02:48:37;12.30;99.90
21646;DHT22;10984;45.712;4.800;2022-10-31T02:51:05;12.40;99.90
21646;DHT22;10984;45.712;4.800;2022-10-31T02:53:50;12.40;99.90
21646;DHT22;10984;45.712;4.800;2022-10-31T02:56:34;12.40;99.90
21646;DHT22;10984;45.712;4.800;2022-10-31T02:59:02;12.40;99.90
21646;DHT22;10984;45.712;4.800;2022-10-31T03:13:51;12.20;99.90
21646;DHT22;10984;45.712;4.800;2022-10-31T03:19:04;12.20;99.90
21646;DHT22;10984;45.712;4.800;2022-10-31T03:24:38;12.20;99.90
21646;DHT22;10984;45.712;4.800;2022-10-31T03:27:07;12.20;99.90
21646;DHT22;10984;45.712;4.800;2022-10-31T03:29:37;12.20;99.90
21646;DHT22;10984;45.712;4.800;2022-10-31T03:34:55;12.20;99.90
21646;DHT22;10984;45.712;4.800;2022-10-31T03:37:24;12.20;99.90
21646;DHT22;10984;45.712;4.800;2022-10-31T03:39:51;12.20;99.90
21646;DHT22;10984;45.712;4.800;2022-10-31T03:42:21;12.30;99.90
21646;DHT22;10984;45.712;4.800;2022-10-31T03:47:52;12.40;99.90
21646;DHT22;10984;45.712;4.800;2022-10-31T03:50:19;12.50;99.90
21646;DHT22;10984;45.712;4.800;2022-10-31T03:53:06;12.50;99.90
21646;DHT22;10984;45.712;4.800;2022-10-31T03:58:32;12.50;99.90
21646;DHT22;10984;45.712;4.800;2022-10-31T04:01:01;12.50;99.90
21646;DHT22;10984;45.712;4.800;2022-10-31T04:03:30;12.40;99.90
21646;DHT22;10984;45.712;4.800;2022-10-31T04:06:01;12.40;99.90
21646;DHT22;10984;45.712;4.800;2022-10-31T04:08:30;12.40;99.90
21646;DHT22;10984;45.712;4.800;2022-10-31T04:10:57;12.40;99.90
21646;DHT22;10984;45.712;4.800;2022-10-31T04:13:44;12.40;99.90
21646;DHT22;10984;45.712;4.800;2022-10-31T04:16:10;12.40;99.90
21646;DHT22;10984;45.712;4.800;2022-10-31T04:18:36;12.40;99.90
21646;DHT22;10984;45.712;4.800;2022-10-31T04:21:05;12.50;99.90
21646;DHT22;10984;45.712;4.800;2022-10-31T04:23:31;12.40;99.90
21646;DHT22;10984;45.712;4.800;2022-10-31T04:25:57;12.40;99.90
21646;DHT22;10984;45.712;4.800;2022-10-31T04:28:23;12.40;99.90
21646;DHT22;10984;45.712;4.800;2022-10-31T04:30:49;12.40;99.90
21646;DHT22;10984;45.712;4.800;2022-10-31T04:33:15;12.50;99.90
21646;DHT22;10984;45.712;4.800;2022-10-31T04:35:41;12.60;99.90
21646;DHT22;10984;45.712;4.800;2022-10-31T04:38:06;12.60;99.90
21646;DHT22;10984;45.712;4.800;2022-10-31T04:40:32;12.70;99.90
21646;DHT22;10984;45.712;4.800;2022-10-31T04:42:58;12.60;99.90
21646;DHT22;10984;45.712;4.800;2022-10-31T04:45:23;12.60;99.90
21646;DHT22;10984;45.712;4.800;2022-10-31T04:47:49;12.60;99.90
21646;DHT22;10984;45.712;4.800;2022-10-31T04:50:14;12.60;99.90
21646;DHT22;10984;45.712;4.800;2022-10-31T04:52:44;12.60;99.90
21646;DHT22;10984;45.712;4.800;2022-10-31T04:55:11;12.50;99.90
21646;DHT22;10984;45.712;4.800;2022-10-31T04:57:56;12.50;99.90
21646;DHT22;10984;45.712;4.800;2022-10-31T05:00:22;12.40;99.90
21646;DHT22;10984;45.712;4.800;2022-10-31T05:03:06;12.50;99.90
21646;DHT22;10984;45.712;4.800;2022-10-31T05:05:32;12.50;99.90
21646;DHT22;10984;45.712;4.800;2022-10-31T05:07:58;12.50;99.90
21646;DHT22;10984;45.712;4.800;2022-10-31T05:10:26;12.50;99.90
21646;DHT22;10984;45.712;4.800;2022-10-31T05:12:57;12.60;99.90
21646;DHT22;10984;45.712;4.800;2022-10-31T05:15:24;12.60;99.90
21646;DHT22;10984;45.712;4.800;2022-10-31T05:17:51;12.70;99.90
21646;DHT22;10984;45.712;4.800;2022-10-31T05:20:19;12.70;99.90
21646;DHT22;10984;45.712;4.800;2022-10-31T05:22:47;12.70;99.90
21646;DHT22;10984;45.712;4.800;2022-10-31T05:25:14;12.70;99.90
21646;DHT22;10984;45.712;4.800;2022-10-31T05:27:45;12.50;99.90
21646;DHT22;10984;45.712;4.800;2022-10-31T05:30:13;12.50;99.90
21646;DHT22;10984;45.712;4.800;2022-10-31T05:32:40;12.50;99.90
21646;DHT22;10984;45.712;4.800;2022-10-31T05:35:07;12.50;99.90
21646;DHT22;10984;45.712;4.800;2022-10-31T05:40:19;12.60;99.90
21646;DHT22;10984;45.712;4.800;2022-10-31T05:42:46;12.60;99.90
21646;DHT22;10984;45.712;4.800;2022-10-31T05:45:16;12.70;99.90
21646;DHT22;10984;45.712;4.800;2022-10-31T05:47:42;12.70;99.90
21646;DHT22;10984;45.712;4.800;2022-10-31T05:50:09;12.80;99.90
21646;DHT22;10984;45.712;4.800;2022-10-31T05:52:35;12.90;99.90
21646;DHT22;10984;45.712;4.800;2022-10-31T05:55:01;12.90;99.90
21646;DHT22;10984;45.712;4.800;2022-10-31T05:57:28;12.80;99.90
21646;DHT22;10984;45.712;4.800;2022-10-31T05:59:54;12.80;99.90
21646;DHT22;10984;45.712;4.800;2022-10-31T06:02:20;12.80;99.90
21646;DHT22;10984;45.712;4.800;2022-10-31T06:04:46;12.80;99.90
21646;DHT22;10984;45.712;4.800;2022-10-31T06:07:12;12.80;99.90
21646;DHT22;10984;45.712;4.800;2022-10-31T06:09:37;12.90;99.90
21646;DHT22;10984;45.712;4.800;2022-10-31T06:12:03;12.90;99.90
21646;DHT22;10984;45.712;4.800;2022-10-31T06:14:29;12.90;99.90
21646;DHT22;10984;45.712;4.800;2022-10-31T06:16:55;12.90;99.90
21646;DHT22;10984;45.712;4.800;2022-10-31T06:19:21;13.00;99.90
21646;DHT22;10984;45.712;4.800;2022-10-31T06:21:46;13.00;99.90
21646;DHT22;10984;45.712;4.800;2022-10-31T06:24:12;13.00;99.90
21646;DHT22;10984;45.712;4.800;2022-10-31T06:26:38;13.20;99.90
21646;DHT22;10984;45.712;4.800;2022-10-31T06:29:03;13.40;99.90
21646;DHT22;10984;45.712;4.800;2022-10-31T06:31:29;13.40;99.90
21646;DHT22;10984;45.712;4.800;2022-10-31T06:34:06;13.40;99.90
21646;DHT22;10984;45.712;4.800;2022-10-31T06:36:48;13.50;99.90
21646;DHT22;10984;45.712;4.800;2022-10-31T06:39:41;13.50;99.90
21646;DHT22;10984;45.712;4.800;2022-10-31T06:42:40;13.60;99.90
21646;DHT22;10984;45.712;4.800;2022-10-31T06:45:11;13.60;99.90
21646;DHT22;10984;45.712;4.800;2022-10-31T06:47:37;13.70;99.90
21646;DHT22;10984;45.712;4.800;2022-10-31T07:21:04;14.10;99.90
21646;DHT22;10984;45.712;4.800;2022-10-31T07:23:30;14.20;99.90
21646;DHT22;10984;45.712;4.800;2022-10-31T07:25:56;14.30;99.90
21646;DHT22;10984;45.712;4.800;2022-10-31T07:28:23;14.40;99.90
21646;DHT22;10984;45.712;4.800;2022-10-31T07:31:07;14.50;99.90
21646;DHT22;10984;45.712;4.800;2022-10-31T07:33:33;14.60;99.90
21646;DHT22;10984;45.712;4.800;2022-10-31T07:35:59;14.70;99.90
21646;DHT22;10984;45.712;4.800;2022-10-31T07:38:25;14.80;99.90
21646;DHT22;10984;45.712;4.800;2022-10-31T07:40:52;14.90;99.90
21646;DHT22;10984;45.712;4.800;2022-10-31T07:43:36;15.00;99.90
21646;DHT22;10984;45.712;4.800;2022-10-31T07:46:01;15.00;99.90
21646;DHT22;10984;45.712;4.800;2022-10-31T07:48:27;15.20;99.90
21646;DHT22;10984;45.712;4.800;2022-10-31T07:50:53;15.30;99.90
21646;DHT22;10984;45.712;4.800;2022-10-31T07:53:20;15.40;99.90
21646;DHT22;10984;45.712;4.800;2022-10-31T07:55:45;15.50;99.90
21646;DHT22;10984;45.712;4.800;2022-10-31T07:58:13;15.60;99.90
21646;DHT22;10984;45.712;4.800;2022-10-31T08:00:41;15.70;99.90
21646;DHT22;10984;45.712;4.800;2022-10-31T08:03:09;15.70;99.90
21646;DHT22;10984;45.712;4.800;2022-10-31T08:05:36;15.80;99.90
21646;DHT22;10984;45.712;4.800;2022-10-31T08:08:03;15.90;99.90
21646;DHT22;10984;45.712;4.800;2022-10-31T08:10:29;15.90;99.90
21646;DHT22;10984;45.712;4.800;2022-10-31T08:13:05;16.00;99.90
21646;DHT22;10984;45.712;4.800;2022-10-31T08:15:32;16.00;99.90
21646;DHT22;10984;45.712;4.800;2022-10-31T08:17:59;16.00;99.90
21646;DHT22;10984;45.712;4.800;2022-10-31T08:20:25;15.90;99.90
21646;DHT22;10984;45.712;4.800;2022-10-31T08:23:10;15.90;99.90
21646;DHT22;10984;45.712;4.800;2022-10-31T08:25:36;15.90;99.90
21646;DHT22;10984;45.712;4.800;2022-10-31T08:28:02;15.90;99.90
21646;DHT22;10984;45.712;4.800;2022-10-31T08:30:30;16.00;99.90
21646;DHT22;10984;45.712;4.800;2022-10-31T08:35:42;16.20;99.90
21646;DHT22;10984;45.712;4.800;2022-10-31T08:38:10;16.50;99.90
21646;DHT22;10984;45.712;4.800;2022-10-31T08:40:36;16.60;99.90
21646;DHT22;10984;45.712;4.800;2022-10-31T08:43:21;16.80;99.90
21646;DHT22;10984;45.712;4.800;2022-10-31T08:45:48;16.90;99.90
21646;DHT22;10984;45.712;4.800;2022-10-31T08:48:15;17.00;99.90
21646;DHT22;10984;45.712;4.800;2022-10-31T08:50:42;17.00;99.90
21646;DHT22;10984;45.712;4.800;2022-10-31T08:53:26;17.00;99.90
21646;DHT22;10984;45.712;4.800;2022-10-31T08:55:55;17.00;99.90
21646;DHT22;10984;45.712;4.800;2022-10-31T08:58:22;17.10;99.90
21646;DHT22;10984;45.712;4.800;2022-10-31T09:00:50;17.20;99.90
21646;DHT22;10984;45.712;4.800;2022-10-31T09:03:22;17.30;99.90
21646;DHT22;10984;45.712;4.800;2022-10-31T09:05:48;17.40;99.90
21646;DHT22;10984;45.712;4.800;2022-10-31T09:08:15;17.50;99.90
21646;DHT22;10984;45.712;4.800;2022-10-31T09:10:41;17.60;99.90
21646;DHT22;10984;45.712;4.800;2022-10-31T09:13:10;17.70;99.90
21646;DHT22;10984;45.712;4.800;2022-10-31T09:15:37;17.80;99.90
21646;DHT22;10984;45.712;4.800;2022-10-31T09:18:07;17.80;99.90
21646;DHT22;10984;45.712;4.800;2022-10-31T09:20:35;17.90;99.90
21646;DHT22;10984;45.712;4.800;2022-10-31T09:23:03;18.10;99.90
21646;DHT22;10984;45.712;4.800;2022-10-31T09:25:30;18.20;99.90
21646;DHT22;10984;45.712;4.800;2022-10-31T09:28:00;18.20;99.90
21646;DHT22;10984;45.712;4.800;2022-10-31T09:30:29;18.40;99.90
21646;DHT22;10984;45.712;4.800;2022-10-31T09:32:56;18.50;99.90
21646;DHT22;10984;45.712;4.800;2022-10-31T09:35:22;18.60;99.90
21646;DHT22;10984;45.712;4.800;2022-10-31T09:37:57;18.60;99.90
21646;DHT22;10984;45.712;4.800;2022-10-31T09:40:43;18.60;99.90
21646;DHT22;10984;45.712;4.800;2022-10-31T09:43:31;18.70;99.90
21646;DHT22;10984;45.712;4.800;2022-10-31T09:49:24;18.80;99.90
21646;DHT22;10984;45.712;4.800;2022-10-31T09:52:17;18.70;99.90
21646;DHT22;10984;45.712;4.800;2022-10-31T09:57:35;18.80;99.90
21646;DHT22;10984;45.712;4.800;2022-10-31T10:00:04;19.00;99.90
21646;DHT22;10984;45.712;4.800;2022-10-31T10:08:38;19.20;99.90
21646;DHT22;10984;45.712;4.800;2022-10-31T10:26:19;19.60;99.90
21646;DHT22;10984;45.712;4.800;2022-10-31T10:31:49;19.70;99.90
21646;DHT22;10984;45.712;4.800;2022-10-31T10:40:23;19.80;99.90
21646;DHT22;10984;45.712;4.800;2022-10-31T11:00:26;20.60;99.90
21646;DHT22;10984;45.712;4.800;2022-10-31T11:02:53;20.70;99.90
21646;DHT22;10984;45.712;4.800;2022-10-31T11:05:24;20.70;99.90
21646;DHT22;10984;45.712;4.800;2022-10-31T11:07:51;20.70;99.90
21646;DHT22;10984;45.712;4.800;2022-10-31T11:10:17;20.80;99.90
21646;DHT22;10984;45.712;4.800;2022-10-31T11:12:46;20.80;99.90
21646;DHT22;10984;45.712;4.800;2022-10-31T11:15:24;20.90;99.90
21646;DHT22;10984;45.712;4.800;2022-10-31T11:17:53;20.90;99.90
21646;DHT22;10984;45.712;4.800;2022-10-31T11:23:25;21.00;99.90
21646;DHT22;10984;45.712;4.800;2022-10-31T11:26:16;20.90;99.90
21646;DHT22;10984;45.712;4.800;2022-10-31T11:28:43;20.90;99.90
21646;DHT22;10984;45.712;4.800;2022-10-31T11:31:21;20.90;99.90
21646;DHT22;10984;45.712;4.800;2022-10-31T11:33:49;20.90;99.90
21646;DHT22;10984;45.712;4.800;2022-10-31T11:36:35;21.00;99.90
21646;DHT22;10984;45.712;4.800;2022-10-31T11:39:03;21.10;99.90
21646;DHT22;10984;45.712;4.800;2022-10-31T11:41:48;21.20;99.90
21646;DHT22;10984;45.712;4.800;2022-10-31T11:44:33;21.20;99.90
21646;DHT22;10984;45.712;4.800;2022-10-31T11:50:10;21.20;99.90
21646;DHT22;10984;45.712;4.800;2022-10-31T11:52:38;21.20;99.90
21646;DHT22;10984;45.712;4.800;2022-10-31T11:58:26;21.40;99.90
21646;DHT22;10984;45.712;4.800;2022-10-31T12:00:56;21.40;99.90
21646;DHT22;10984;45.712;4.800;2022-10-31T12:08:51;21.70;99.90
21646;DHT22;10984;45.712;4.800;2022-10-31T12:51:39;21.60;99.90
21646;DHT22;10984;45.712;4.800;2022-10-31T13:16:41;21.60;99.90
21646;DHT22;10984;45.712;4.800;2022-10-31T13:25:15;21.70;99.90
21646;DHT22;10984;45.712;4.800;2022-10-31T13:30:47;21.70;99.90
21646;DHT22;10984;45.712;4.800;2022-10-31T13:44:40;21.40;99.90
21646;DHT22;10984;45.712;4.800;2022-10-31T13:47:26;21.30;99.90
21646;DHT22;10984;45.712;4.800;2022-10-31T13:50:03;21.30;99.90
21646;DHT22;10984;45.712;4.800;2022-10-31T13:52:29;21.30;99.90
21646;DHT22;10984;45.712;4.800;2022-10-31T13:54:55;21.10;99.90
21646;DHT22;10984;45.712;4.800;2022-10-31T14:00:25;21.20;99.90
21646;DHT22;10984;45.712;4.800;2022-10-31T14:02:54;21.20;99.90
21646;DHT22;10984;45.712;4.800;2022-10-31T14:05:40;21.30;99.90
21646;DHT22;10984;45.712;4.800;2022-10-31T14:08:15;21.40;99.90
21646;DHT22;10984;45.712;4.800;2022-10-31T14:11:02;21.40;99.90
21646;DHT22;10984;45.712;4.800;2022-10-31T14:16:31;21.40;99.90
21646;DHT22;10984;45.712;4.800;2022-10-31T14:21:49;21.30;99.90
21646;DHT22;10984;45.712;4.800;2022-10-31T14:24:32;21.20;99.90
21646;DHT22;10984;45.712;4.800;2022-10-31T14:29:42;21.10;99.90
21646;DHT22;10984;45.712;4.800;2022-10-31T14:32:27;21.10;99.90
21646;DHT22;10984;45.712;4.800;2022-10-31T14:34:58;21.10;99.90
21646;DHT22;10984;45.712;4.800;2022-10-31T14:52:20;20.80;99.90
21646;DHT22;10984;45.712;4.800;2022-10-31T14:57:35;20.60;99.90
21646;DHT22;10984;45.712;4.800;2022-10-31T15:00:05;20.50;99.90
21646;DHT22;10984;45.712;4.800;2022-10-31T15:02:37;20.50;99.90
21646;DHT22;10984;45.712;4.800;2022-10-31T15:05:22;20.50;99.90
21646;DHT22;10984;45.712;4.800;2022-10-31T15:10:37;20.40;99.90
21646;DHT22;10984;45.712;4.800;2022-10-31T15:13:21;20.30;99.90
21646;DHT22;10984;45.712;4.800;2022-10-31T15:15:49;20.40;99.90
21646;DHT22;10984;45.712;4.800;2022-10-31T15:18:36;20.30;99.90
21646;DHT22;10984;45.712;4.800;2022-10-31T15:21:04;20.20;99.90
21646;DHT22;10984;45.712;4.800;2022-10-31T15:23:32;20.20;99.90
21646;DHT22;10984;45.712;4.800;2022-10-31T15:26:17;20.10;99.90
21646;DHT22;10984;45.712;4.800;2022-10-31T15:28:45;20.00;99.90
21646;DHT22;10984;45.712;4.800;2022-10-31T15:31:29;19.90;99.90
21646;DHT22;10984;45.712;4.800;2022-10-31T15:34:00;19.80;99.90
21646;DHT22;10984;45.712;4.800;2022-10-31T15:36:27;19.70;99.90
21646;DHT22;10984;45.712;4.800;2022-10-31T15:38:55;19.60;99.90
21646;DHT22;10984;45.712;4.800;2022-10-31T15:43:50;19.60;99.90
21646;DHT22;10984;45.712;4.800;2022-10-31T15:46:16;19.60;99.90
21646;DHT22;10984;45.712;4.800;2022-10-31T15:49:00;19.50;99.90
21646;DHT22;10984;45.712;4.800;2022-10-31T15:51:44;19.40;99.90
21646;DHT22;10984;45.712;4.800;2022-10-31T15:54:12;19.40;99.90
21646;DHT22;10984;45.712;4.800;2022-10-31T15:56:39;19.30;99.90
21646;DHT22;10984;45.712;4.800;2022-10-31T15:59:04;19.20;99.90
21646;DHT22;10984;45.712;4.800;2022-10-31T16:01:32;19.30;99.90
21646;DHT22;10984;45.712;4.800;2022-10-31T16:06:43;19.20;99.90
21646;DHT22;10984;45.712;4.800;2022-10-31T16:09:28;19.20;99.90
21646;DHT22;10984;45.712;4.800;2022-10-31T16:11:56;19.20;99.90
21646;DHT22;10984;45.712;4.800;2022-10-31T16:14:41;19.10;99.90
21646;DHT22;10984;45.712;4.800;2022-10-31T16:17:12;19.00;99.90
21646;DHT22;10984;45.712;4.800;2022-10-31T16:19:47;19.00;99.90
21646;DHT22;10984;45.712;4.800;2022-10-31T16:22:20;19.10;99.90
21646;DHT22;10984;45.712;4.800;2022-10-31T16:27:52;19.00;99.90
21646;DHT22;10984;45.712;4.800;2022-10-31T16:30:38;19.10;99.90
21646;DHT22;10984;45.712;4.800;2022-10-31T16:35:49;19.10;99.90
21646;DHT22;10984;45.712;4.800;2022-10-31T16:38:15;19.00;99.90
21646;DHT22;10984;45.712;4.800;2022-10-31T16:40:41;19.00;99.90
21646;DHT22;10984;45.712;4.800;2022-10-31T16:43:26;18.90;99.90
21646;DHT22;10984;45.712;4.800;2022-10-31T16:45:51;18.90;99.90
21646;DHT22;10984;45.712;4.800;2022-10-31T16:48:20;18.90;99.90
21646;DHT22;10984;45.712;4.800;2022-10-31T16:50:48;18.80;99.90
21646;DHT22;10984;45.712;4.800;2022-10-31T16:53:15;18.70;99.90
21646;DHT22;10984;45.712;4.800;2022-10-31T17:00:59;18.70;99.90
21646;DHT22;10984;45.712;4.800;2022-10-31T17:03:25;18.80;99.90
21646;DHT22;10984;45.712;4.800;2022-10-31T17:05:51;18.80;99.90
21646;DHT22;10984;45.712;4.800;2022-10-31T17:08:17;18.80;99.90
21646;DHT22;10984;45.712;4.800;2022-10-31T17:10:44;18.80;99.90
21646;DHT22;10984;45.712;4.800;2022-10-31T17:13:15;18.70;99.90
21646;DHT22;10984;45.712;4.800;2022-10-31T17:15:44;18.70;99.90
21646;DHT22;10984;45.712;4.800;2022-10-31T17:18:29;18.60;99.90
21646;DHT22;10984;45.712;4.800;2022-10-31T17:23:58;18.70;99.90
21646;DHT22;10984;45.712;4.800;2022-10-31T17:26:23;18.70;99.90
21646;DHT22;10984;45.712;4.800;2022-10-31T17:28:49;18.60;99.90
21646;DHT22;10984;45.712;4.800;2022-10-31T17:31:34;18.60;99.90
21646;DHT22;10984;45.712;4.800;2022-10-31T17:34:01;18.70;99.90
21646;DHT22;10984;45.712;4.800;2022-10-31T17:36:30;18.60;99.90
21646;DHT22;10984;45.712;4.800;2022-10-31T17:38:56;18.60;99.90
21646;DHT22;10984;45.712;4.800;2022-10-31T17:41:21;18.60;99.90
21646;DHT22;10984;45.712;4.800;2022-10-31T17:43:47;18.60;99.90
21646;DHT22;10984;45.712;4.800;2022-10-31T17:46:13;18.60;99.90
21646;DHT22;10984;45.712;4.800;2022-10-31T17:48:39;18.60;99.90
21646;DHT22;10984;45.712;4.800;2022-10-31T17:51:05;18.60;99.90
21646;DHT22;10984;45.712;4.800;2022-10-31T17:53:32;18.50;99.90
21646;DHT22;10984;45.712;4.800;2022-10-31T17:56:17;18.50;99.90
21646;DHT22;10984;45.712;4.800;2022-10-31T17:58:43;18.50;99.90
21646;DHT22;10984;45.712;4.800;2022-10-31T18:01:10;18.50;99.90
21646;DHT22;10984;45.712;4.800;2022-10-31T18:03:37;18.50;99.90
21646;DHT22;10984;45.712;4.800;2022-10-31T18:06:03;18.40;99.90
21646;DHT22;10984;45.712;4.800;2022-10-31T18:08:31;18.40;99.90
21646;DHT22;10984;45.712;4.800;2022-10-31T18:10:57;18.40;99.90
21646;DHT22;10984;45.712;4.800;2022-10-31T18:13:42;18.50;99.90
21646;DHT22;10984;45.712;4.800;2022-10-31T18:16:09;18.60;99.90
21646;DHT22;10984;45.712;4.800;2022-10-31T18:18:36;18.60;99.90
21646;DHT22;10984;45.712;4.800;2022-10-31T18:21:01;18.60;99.90
21646;DHT22;10984;45.712;4.800;2022-10-31T18:23:27;18.60;99.90
21646;DHT22;10984;45.712;4.800;2022-10-31T18:25:53;18.60;99.90
21646;DHT22;10984;45.712;4.800;2022-10-31T18:28:19;18.60;99.90
21646;DHT22;10984;45.712;4.800;2022-10-31T18:30:45;18.50;99.90
21646;DHT22;10984;45.712;4.800;2022-10-31T18:33:11;18.40;99.90
21646;DHT22;10984;45.712;4.800;2022-10-31T18:35:38;18.50;99.90
21646;DHT22;10984;45.712;4.800;2022-10-31T18:38:05;18.70;99.90
21646;DHT22;10984;45.712;4.800;2022-10-31T18:40:32;18.70;99.90
21646;DHT22;10984;45.712;4.800;2022-10-31T18:42:59;18.70;99.90
21646;DHT22;10984;45.712;4.800;2022-10-31T18:45:24;18.60;99.90
21646;DHT22;10984;45.712;4.800;2022-10-31T18:47:51;18.60;99.90
21646;DHT22;10984;45.712;4.800;2022-10-31T18:50:16;18.70;99.90
21646;DHT22;10984;45.712;4.800;2022-10-31T18:52:42;18.80;99.90
21646;DHT22;10984;45.712;4.800;2022-10-31T18:55:08;18.80;99.90
21646;DHT22;10984;45.712;4.800;2022-10-31T18:57:34;18.80;99.90
21646;DHT22;10984;45.712;4.800;2022-10-31T18:59:59;18.80;99.90
21646;DHT22;10984;45.712;4.800;2022-10-31T19:02:25;18.90;99.90
21646;DHT22;10984;45.712;4.800;2022-10-31T19:04:51;18.80;99.90
21646;DHT22;10984;45.712;4.800;2022-10-31T19:07:16;18.80;99.90
21646;DHT22;10984;45.712;4.800;2022-10-31T19:09:42;18.90;99.90
21646;DHT22;10984;45.712;4.800;2022-10-31T19:12:08;18.90;99.90
21646;DHT22;10984;45.712;4.800;2022-10-31T19:14:33;19.00;99.90
21646;DHT22;10984;45.712;4.800;2022-10-31T19:16:59;19.00;99.90
21646;DHT22;10984;45.712;4.800;2022-10-31T19:19:25;18.90;99.90
21646;DHT22;10984;45.712;4.800;2022-10-31T19:21:50;18.90;99.90
21646;DHT22;10984;45.712;4.800;2022-10-31T19:24:16;18.90;99.90
21646;DHT22;10984;45.712;4.800;2022-10-31T19:26:41;18.90;99.90
21646;DHT22;10984;45.712;4.800;2022-10-31T19:29:08;18.90;99.90
21646;DHT22;10984;45.712;4.800;2022-10-31T19:31:34;19.00;99.90
21646;DHT22;10984;45.712;4.800;2022-10-31T19:34:00;19.10;99.90
21646;DHT22;10984;45.712;4.800;2022-10-31T19:36:25;19.00;99.90
21646;DHT22;10984;45.712;4.800;2022-10-31T19:38:52;19.00;99.90
21646;DHT22;10984;45.712;4.800;2022-10-31T19:44:04;19.00;99.90
21646;DHT22;10984;45.712;4.800;2022-10-31T19:46:30;19.00;99.90
21646;DHT22;10984;45.712;4.800;2022-10-31T19:48:55;19.00;99.90
21646;DHT22;10984;45.712;4.800;2022-10-31T19:51:21;18.90;99.90
21646;DHT22;10984;45.712;4.800;2022-10-31T19:53:47;18.90;99.90
21646;DHT22;10984;45.712;4.800;2022-10-31T19:56:31;18.80;99.90
21646;DHT22;10984;45.712;4.800;2022-10-31T19:58:57;18.80;99.90
21646;DHT22;10984;45.712;4.800;2022-10-31T20:01:41;18.80;99.90
21646;DHT22;10984;45.712;4.800;2022-10-31T20:04:07;18.90;99.90
21646;DHT22;10984;45.712;4.800;2022-10-31T20:06:35;18.90;99.90
21646;DHT22;10984;45.712;4.800;2022-10-31T20:09:05;19.00;99.90
21646;DHT22;10984;45.712;4.800;2022-10-31T20:11:32;19.00;99.90
21646;DHT22;10984;45.712;4.800;2022-10-31T20:14:00;19.00;99.90
21646;DHT22;10984;45.712;4.800;2022-10-31T20:16:26;19.10;99.90
21646;DHT22;10984;45.712;4.800;2022-10-31T20:18:53;19.10;99.90
21646;DHT22;10984;45.712;4.800;2022-10-31T20:21:21;19.20;99.90
21646;DHT22;10984;45.712;4.800;2022-10-31T20:23:47;19.20;99.90
21646;DHT22;10984;45.712;4.800;2022-10-31T20:26:15;19.30;99.90
21646;DHT22;10984;45.712;4.800;2022-10-31T20:28:41;19.40;99.90
21646;DHT22;10984;45.712;4.800;2022-10-31T20:31:13;19.40;99.90
21646;DHT22;10984;45.712;4.800;2022-10-31T20:33:39;19.40;99.90
21646;DHT22;10984;45.712;4.800;2022-10-31T20:36:06;19.40;99.90
21646;DHT22;10984;45.712;4.800;2022-10-31T20:38:32;19.40;99.90
21646;DHT22;10984;45.712;4.800;2022-10-31T20:41:03;19.40;99.90
21646;DHT22;10984;45.712;4.800;2022-10-31T20:43:29;19.30;99.90
21646;DHT22;10984;45.712;4.800;2022-10-31T20:46:16;19.30;99.90
21646;DHT22;10984;45.712;4.800;2022-10-31T20:48:42;19.30;99.90
21646;DHT22;10984;45.712;4.800;2022-10-31T20:51:27;19.30;99.90